sensor_id;sensor_type;location;lat;lon;timestamp;P1;durP1;ratioP1;P2;durP2;ratioP2
81894;SDS011;71358;45.642;13.758;2023-11-21T00:01:12;8.07;;;7.28;;
81894;SDS011;71358;45.642;13.758;2023-11-21T00:03:57;8.27;;;7.47;;
81894;SDS011;71358;45.642;13.758;2023-11-21T00:06:41;9.02;;;8.13;;
81894;SDS011;71358;45.642;13.758;2023-11-21T00:09:26;10.30;;;8.20;;
81894;SDS011;71358;45.642;13.758;2023-11-21T00:12:11;7.85;;;7.15;;
81894;SDS011;71358;45.642;13.758;2023-11-21T00:14:55;7.18;;;6.47;;
81894;SDS011;71358;45.642;13.758;2023-11-21T00:17:40;8.02;;;7.22;;
81894;SDS011;71358;45.642;13.758;2023-11-21T00:20:24;8.70;;;7.28;;
81894;SDS011;71358;45.642;13.758;2023-11-21T00:23:09;7.90;;;7.10;;
81894;SDS011;71358;45.642;13.758;2023-11-21T00:25:54;8.38;;;7.57;;
81894;SDS011;71358;45.642;13.758;2023-11-21T00:28:38;9.35;;;7.35;;
81894;SDS011;71358;45.642;13.758;2023-11-21T00:31:23;7.78;;;6.88;;
81894;SDS011;71358;45.642;13.758;2023-11-21T00:34:07;8.05;;;7.35;;
81894;SDS011;71358;45.642;13.758;2023-11-21T00:36:52;7.05;;;6.45;;
81894;SDS011;71358;45.642;13.758;2023-11-21T00:39:37;7.05;;;6.45;;
81894;SDS011;71358;45.642;13.758;2023-11-21T00:42:21;7.20;;;6.60;;
81894;SDS011;71358;45.642;13.758;2023-11-21T00:45:06;7.65;;;6.93;;
81894;SDS011;71358;45.642;13.758;2023-11-21T00:47:51;9.90;;;6.82;;
81894;SDS011;71358;45.642;13.758;2023-11-21T00:50:36;7.78;;;7.03;;
81894;SDS011;71358;45.642;13.758;2023-11-21T00:53:21;8.05;;;7.25;;
81894;SDS011;71358;45.642;13.758;2023-11-21T00:56:05;8.07;;;7.28;;
81894;SDS011;71358;45.642;13.758;2023-11-21T00:58:52;7.55;;;6.75;;
81894;SDS011;71358;45.642;13.758;2023-11-21T01:01:37;7.55;;;6.85;;
81894;SDS011;71358;45.642;13.758;2023-11-21T01:04:23;7.82;;;7.13;;
81894;SDS011;71358;45.642;13.758;2023-11-21T01:07:07;7.15;;;6.55;;
81894;SDS011;71358;45.642;13.758;2023-11-21T01:09:52;8.32;;;6.50;;
81894;SDS011;71358;45.642;13.758;2023-11-21T01:12:37;7.93;;;7.22;;
81894;SDS011;71358;45.642;13.758;2023-11-21T01:15:22;7.45;;;6.75;;
81894;SDS011;71358;45.642;13.758;2023-11-21T01:18:06;6.88;;;6.07;;
81894;SDS011;71358;45.642;13.758;2023-11-21T01:20:52;6.72;;;6.13;;
81894;SDS011;71358;45.642;13.758;2023-11-21T01:23:37;7.35;;;6.75;;
81894;SDS011;71358;45.642;13.758;2023-11-21T01:26:22;7.35;;;6.70;;
81894;SDS011;71358;45.642;13.758;2023-11-21T01:29:06;7.88;;;7.07;;
81894;SDS011;71358;45.642;13.758;2023-11-21T01:31:51;7.53;;;6.80;;
81894;SDS011;71358;45.642;13.758;2023-11-21T01:34:35;7.13;;;6.40;;
81894;SDS011;71358;45.642;13.758;2023-11-21T01:37:20;6.93;;;6.32;;
81894;SDS011;71358;45.642;13.758;2023-11-21T01:40:05;6.95;;;6.35;;
81894;SDS011;71358;45.642;13.758;2023-11-21T01:42:53;6.40;;;5.70;;
81894;SDS011;71358;45.642;13.758;2023-11-21T01:45:38;7.10;;;6.30;;
81894;SDS011;71358;45.642;13.758;2023-11-21T01:48:23;6.88;;;6.18;;
81894;SDS011;71358;45.642;13.758;2023-11-21T01:51:08;6.90;;;6.20;;
81894;SDS011;71358;45.642;13.758;2023-11-21T01:53:53;6.10;;;5.60;;
81894;SDS011;71358;45.642;13.758;2023-11-21T01:56:37;7.28;;;6.60;;
81894;SDS011;71358;45.642;13.758;2023-11-21T01:59:23;6.35;;;5.78;;
81894;SDS011;71358;45.642;13.758;2023-11-21T02:02:10;6.22;;;5.30;;
81894;SDS011;71358;45.642;13.758;2023-11-21T02:04:56;6.10;;;5.50;;
81894;SDS011;71358;45.642;13.758;2023-11-21T02:07:44;6.47;;;5.88;;
81894;SDS011;71358;45.642;13.758;2023-11-21T02:10:30;6.53;;;5.63;;
81894;SDS011;71358;45.642;13.758;2023-11-21T02:13:16;6.35;;;5.78;;
81894;SDS011;71358;45.642;13.758;2023-11-21T02:16:01;6.72;;;6.05;;
81894;SDS011;71358;45.642;13.758;2023-11-21T02:18:47;6.13;;;5.60;;
81894;SDS011;71358;45.642;13.758;2023-11-21T02:21:32;6.22;;;5.72;;
81894;SDS011;71358;45.642;13.758;2023-11-21T02:24:17;5.95;;;5.45;;
81894;SDS011;71358;45.642;13.758;2023-11-21T02:27:05;6.00;;;5.47;;
81894;SDS011;71358;45.642;13.758;2023-11-21T02:29:49;5.80;;;5.30;;
81894;SDS011;71358;45.642;13.758;2023-11-21T02:32:34;5.63;;;5.20;;
81894;SDS011;71358;45.642;13.758;2023-11-21T02:35:19;5.68;;;5.25;;
81894;SDS011;71358;45.642;13.758;2023-11-21T02:38:09;5.85;;;5.35;;
81894;SDS011;71358;45.642;13.758;2023-11-21T02:40:54;8.32;;;5.95;;
81894;SDS011;71358;45.642;13.758;2023-11-21T02:43:41;5.57;;;5.07;;
81894;SDS011;71358;45.642;13.758;2023-11-21T02:46:25;6.22;;;5.57;;
81894;SDS011;71358;45.642;13.758;2023-11-21T02:49:10;5.85;;;5.28;;
81894;SDS011;71358;45.642;13.758;2023-11-21T02:51:55;5.88;;;5.38;;
81894;SDS011;71358;45.642;13.758;2023-11-21T02:54:40;5.78;;;5.28;;
81894;SDS011;71358;45.642;13.758;2023-11-21T02:57:25;6.05;;;5.55;;
81894;SDS011;71358;45.642;13.758;2023-11-21T03:00:09;6.40;;;5.80;;
81894;SDS011;71358;45.642;13.758;2023-11-21T03:02:56;5.63;;;5.13;;
81894;SDS011;71358;45.642;13.758;2023-11-21T03:05:41;5.72;;;4.95;;
81894;SDS011;71358;45.642;13.758;2023-11-21T03:08:25;5.22;;;4.82;;
81894;SDS011;71358;45.642;13.758;2023-11-21T03:11:10;6.03;;;5.43;;
81894;SDS011;71358;45.642;13.758;2023-11-21T03:13:55;5.40;;;4.90;;
81894;SDS011;71358;45.642;13.758;2023-11-21T03:16:39;6.50;;;5.90;;
81894;SDS011;71358;45.642;13.758;2023-11-21T03:19:24;5.72;;;5.18;;
81894;SDS011;71358;45.642;13.758;2023-11-21T03:22:09;4.80;;;4.40;;
81894;SDS011;71358;45.642;13.758;2023-11-21T03:24:55;5.10;;;4.60;;
81894;SDS011;71358;45.642;13.758;2023-11-21T03:27:40;4.80;;;4.40;;
81894;SDS011;71358;45.642;13.758;2023-11-21T03:30:24;5.72;;;5.10;;
81894;SDS011;71358;45.642;13.758;2023-11-21T03:33:09;4.78;;;4.43;;
81894;SDS011;71358;45.642;13.758;2023-11-21T03:35:53;5.28;;;4.82;;
81894;SDS011;71358;45.642;13.758;2023-11-21T03:38:38;6.20;;;5.60;;
81894;SDS011;71358;45.642;13.758;2023-11-21T03:41:22;5.35;;;4.53;;
81894;SDS011;71358;45.642;13.758;2023-11-21T03:44:07;5.82;;;5.22;;
81894;SDS011;71358;45.642;13.758;2023-11-21T03:46:52;5.28;;;4.88;;
81894;SDS011;71358;45.642;13.758;2023-11-21T03:49:37;5.25;;;4.43;;
81894;SDS011;71358;45.642;13.758;2023-11-21T03:52:21;5.18;;;4.72;;
81894;SDS011;71358;45.642;13.758;2023-11-21T03:55:06;5.22;;;4.70;;
81894;SDS011;71358;45.642;13.758;2023-11-21T03:57:51;5.95;;;5.00;;
81894;SDS011;71358;45.642;13.758;2023-11-21T04:00:36;7.07;;;4.68;;
81894;SDS011;71358;45.642;13.758;2023-11-21T04:03:21;5.85;;;5.28;;
81894;SDS011;71358;45.642;13.758;2023-11-21T04:06:06;5.75;;;5.22;;
81894;SDS011;71358;45.642;13.758;2023-11-21T04:08:50;5.80;;;5.13;;
81894;SDS011;71358;45.642;13.758;2023-11-21T04:11:35;5.68;;;4.85;;
81894;SDS011;71358;45.642;13.758;2023-11-21T04:14:19;5.15;;;4.65;;
81894;SDS011;71358;45.642;13.758;2023-11-21T04:17:04;5.35;;;4.85;;
81894;SDS011;71358;45.642;13.758;2023-11-21T04:19:48;4.90;;;4.40;;
81894;SDS011;71358;45.642;13.758;2023-11-21T04:22:33;5.00;;;4.70;;
81894;SDS011;71358;45.642;13.758;2023-11-21T04:25:18;5.35;;;4.82;;
81894;SDS011;71358;45.642;13.758;2023-11-21T04:28:02;5.32;;;4.80;;
81894;SDS011;71358;45.642;13.758;2023-11-21T04:30:48;5.05;;;4.65;;
81894;SDS011;71358;45.642;13.758;2023-11-21T04:33:32;5.28;;;4.78;;
81894;SDS011;71358;45.642;13.758;2023-11-21T04:36:17;5.32;;;4.50;;
81894;SDS011;71358;45.642;13.758;2023-11-21T04:39:03;5.78;;;4.55;;
81894;SDS011;71358;45.642;13.758;2023-11-21T04:41:48;6.30;;;4.47;;
81894;SDS011;71358;45.642;13.758;2023-11-21T04:44:32;5.40;;;4.75;;
81894;SDS011;71358;45.642;13.758;2023-11-21T04:47:17;6.13;;;4.50;;
81894;SDS011;71358;45.642;13.758;2023-11-21T04:50:03;5.78;;;4.35;;
81894;SDS011;71358;45.642;13.758;2023-11-21T04:52:49;5.70;;;4.28;;
81894;SDS011;71358;45.642;13.758;2023-11-21T04:55:34;4.65;;;4.25;;
81894;SDS011;71358;45.642;13.758;2023-11-21T04:58:18;4.78;;;4.38;;
81894;SDS011;71358;45.642;13.758;2023-11-21T05:01:04;5.10;;;4.65;;
81894;SDS011;71358;45.642;13.758;2023-11-21T05:03:49;5.03;;;4.63;;
81894;SDS011;71358;45.642;13.758;2023-11-21T05:06:34;4.72;;;4.32;;
81894;SDS011;71358;45.642;13.758;2023-11-21T05:09:18;5.30;;;4.80;;
81894;SDS011;71358;45.642;13.758;2023-11-21T05:12:03;4.50;;;4.10;;
81894;SDS011;71358;45.642;13.758;2023-11-21T05:14:47;4.90;;;4.50;;
81894;SDS011;71358;45.642;13.758;2023-11-21T05:17:32;4.97;;;4.47;;
81894;SDS011;71358;45.642;13.758;2023-11-21T05:20:18;4.55;;;4.15;;
81894;SDS011;71358;45.642;13.758;2023-11-21T05:23:04;4.68;;;4.22;;
81894;SDS011;71358;45.642;13.758;2023-11-21T05:25:49;4.93;;;4.53;;
81894;SDS011;71358;45.642;13.758;2023-11-21T05:28:34;5.75;;;4.45;;
81894;SDS011;71358;45.642;13.758;2023-11-21T05:31:18;5.03;;;4.45;;
81894;SDS011;71358;45.642;13.758;2023-11-21T05:34:03;5.10;;;4.32;;
81894;SDS011;71358;45.642;13.758;2023-11-21T05:36:48;4.85;;;4.32;;
81894;SDS011;71358;45.642;13.758;2023-11-21T05:39:33;5.80;;;4.55;;
81894;SDS011;71358;45.642;13.758;2023-11-21T05:42:19;5.05;;;4.63;;
81894;SDS011;71358;45.642;13.758;2023-11-21T05:45:05;6.80;;;4.68;;
81894;SDS011;71358;45.642;13.758;2023-11-21T05:47:53;5.07;;;4.63;;
81894;SDS011;71358;45.642;13.758;2023-11-21T05:50:39;5.32;;;4.40;;
81894;SDS011;71358;45.642;13.758;2023-11-21T05:53:24;4.35;;;4.05;;
81894;SDS011;71358;45.642;13.758;2023-11-21T05:56:08;4.45;;;3.90;;
81894;SDS011;71358;45.642;13.758;2023-11-21T05:58:53;4.85;;;4.30;;
81894;SDS011;71358;45.642;13.758;2023-11-21T06:01:37;5.80;;;4.13;;
81894;SDS011;71358;45.642;13.758;2023-11-21T06:04:24;5.13;;;4.28;;
81894;SDS011;71358;45.642;13.758;2023-11-21T06:07:09;3.88;;;3.58;;
81894;SDS011;71358;45.642;13.758;2023-11-21T06:09:54;4.20;;;3.90;;
81894;SDS011;71358;45.642;13.758;2023-11-21T06:12:38;4.40;;;3.90;;
81894;SDS011;71358;45.642;13.758;2023-11-21T06:15:23;5.72;;;3.50;;
81894;SDS011;71358;45.642;13.758;2023-11-21T06:18:08;3.85;;;3.45;;
81894;SDS011;71358;45.642;13.758;2023-11-21T06:20:54;4.80;;;3.85;;
81894;SDS011;71358;45.642;13.758;2023-11-21T06:23:39;4.32;;;3.85;;
81894;SDS011;71358;45.642;13.758;2023-11-21T06:26:23;4.32;;;3.45;;
81894;SDS011;71358;45.642;13.758;2023-11-21T06:29:09;3.83;;;3.53;;
81894;SDS011;71358;45.642;13.758;2023-11-21T06:31:54;3.63;;;3.33;;
81894;SDS011;71358;45.642;13.758;2023-11-21T06:34:39;3.40;;;3.10;;
81894;SDS011;71358;45.642;13.758;2023-11-21T06:37:24;4.78;;;3.47;;
81894;SDS011;71358;45.642;13.758;2023-11-21T06:40:08;3.72;;;3.42;;
81894;SDS011;71358;45.642;13.758;2023-11-21T06:42:53;5.10;;;3.63;;
81894;SDS011;71358;45.642;13.758;2023-11-21T06:45:38;3.70;;;3.40;;
81894;SDS011;71358;45.642;13.758;2023-11-21T06:48:22;13.15;;;3.53;;
81894;SDS011;71358;45.642;13.758;2023-11-21T06:51:07;4.18;;;3.80;;
81894;SDS011;71358;45.642;13.758;2023-11-21T06:53:52;3.30;;;3.00;;
81894;SDS011;71358;45.642;13.758;2023-11-21T06:56:36;4.80;;;3.38;;
81894;SDS011;71358;45.642;13.758;2023-11-21T06:59:22;3.67;;;3.38;;
81894;SDS011;71358;45.642;13.758;2023-11-21T07:02:07;4.05;;;3.10;;
81894;SDS011;71358;45.642;13.758;2023-11-21T07:04:53;3.50;;;3.17;;
81894;SDS011;71358;45.642;13.758;2023-11-21T07:07:37;3.55;;;2.90;;
81894;SDS011;71358;45.642;13.758;2023-11-21T07:10:22;5.10;;;3.50;;
81894;SDS011;71358;45.642;13.758;2023-11-21T07:13:06;4.97;;;3.40;;
81894;SDS011;71358;45.642;13.758;2023-11-21T07:15:57;6.22;;;3.70;;
81894;SDS011;71358;45.642;13.758;2023-11-21T07:18:42;6.68;;;3.70;;
81894;SDS011;71358;45.642;13.758;2023-11-21T07:21:27;6.85;;;3.35;;
81894;SDS011;71358;45.642;13.758;2023-11-21T07:24:12;5.85;;;3.75;;
81894;SDS011;71358;45.642;13.758;2023-11-21T07:26:56;3.92;;;3.50;;
81894;SDS011;71358;45.642;13.758;2023-11-21T07:29:41;3.60;;;3.30;;
81894;SDS011;71358;45.642;13.758;2023-11-21T07:32:25;5.63;;;3.53;;
81894;SDS011;71358;45.642;13.758;2023-11-21T07:35:10;4.53;;;3.05;;
81894;SDS011;71358;45.642;13.758;2023-11-21T07:37:55;8.02;;;3.22;;
81894;SDS011;71358;45.642;13.758;2023-11-21T07:40:39;7.25;;;3.83;;
81894;SDS011;71358;45.642;13.758;2023-11-21T07:43:24;6.35;;;3.20;;
81894;SDS011;71358;45.642;13.758;2023-11-21T07:46:09;5.38;;;2.75;;
81894;SDS011;71358;45.642;13.758;2023-11-21T07:48:56;4.72;;;3.25;;
81894;SDS011;71358;45.642;13.758;2023-11-21T07:51:40;3.70;;;3.22;;
81894;SDS011;71358;45.642;13.758;2023-11-21T07:54:25;4.55;;;2.70;;
81894;SDS011;71358;45.642;13.758;2023-11-21T07:57:10;6.03;;;3.40;;
81894;SDS011;71358;45.642;13.758;2023-11-21T07:59:56;4.88;;;2.40;;
81894;SDS011;71358;45.642;13.758;2023-11-21T08:02:41;2.35;;;2.15;;
81894;SDS011;71358;45.642;13.758;2023-11-21T08:05:26;2.28;;;1.92;;
81894;SDS011;71358;45.642;13.758;2023-11-21T08:08:10;2.72;;;1.98;;
81894;SDS011;71358;45.642;13.758;2023-11-21T08:10:55;2.08;;;1.88;;
81894;SDS011;71358;45.642;13.758;2023-11-21T08:13:42;2.30;;;2.10;;
81894;SDS011;71358;45.642;13.758;2023-11-21T08:16:26;2.17;;;1.98;;
81894;SDS011;71358;45.642;13.758;2023-11-21T08:19:11;2.60;;;1.98;;
81894;SDS011;71358;45.642;13.758;2023-11-21T08:21:56;3.65;;;1.58;;
81894;SDS011;71358;45.642;13.758;2023-11-21T08:24:40;1.90;;;1.75;;
81894;SDS011;71358;45.642;13.758;2023-11-21T08:27:25;1.83;;;1.70;;
81894;SDS011;71358;45.642;13.758;2023-11-21T08:30:09;2.42;;;2.00;;
81894;SDS011;71358;45.642;13.758;2023-11-21T08:32:54;1.75;;;1.65;;
81894;SDS011;71358;45.642;13.758;2023-11-21T08:35:42;2.15;;;1.45;;
81894;SDS011;71358;45.642;13.758;2023-11-21T08:38:26;1.70;;;1.60;;
81894;SDS011;71358;45.642;13.758;2023-11-21T08:41:12;2.00;;;1.77;;
81894;SDS011;71358;45.642;13.758;2023-11-21T08:43:58;3.38;;;1.52;;
81894;SDS011;71358;45.642;13.758;2023-11-21T08:46:43;2.50;;;1.52;;
81894;SDS011;71358;45.642;13.758;2023-11-21T08:49:31;2.40;;;1.58;;
81894;SDS011;71358;45.642;13.758;2023-11-21T08:52:16;4.53;;;2.03;;
81894;SDS011;71358;45.642;13.758;2023-11-21T08:55:00;3.65;;;2.10;;
81894;SDS011;71358;45.642;13.758;2023-11-21T08:57:51;1.45;;;1.35;;
81894;SDS011;71358;45.642;13.758;2023-11-21T09:00:35;1.85;;;1.70;;
81894;SDS011;71358;45.642;13.758;2023-11-21T09:03:20;2.35;;;1.88;;
81894;SDS011;71358;45.642;13.758;2023-11-21T09:06:05;2.55;;;1.55;;
81894;SDS011;71358;45.642;13.758;2023-11-21T09:08:50;2.20;;;2.00;;
81894;SDS011;71358;45.642;13.758;2023-11-21T09:11:34;3.65;;;1.90;;
81894;SDS011;71358;45.642;13.758;2023-11-21T09:14:19;2.45;;;2.05;;
81894;SDS011;71358;45.642;13.758;2023-11-21T09:17:04;1.88;;;1.77;;
81894;SDS011;71358;45.642;13.758;2023-11-21T09:19:54;4.32;;;2.22;;
81894;SDS011;71358;45.642;13.758;2023-11-21T09:22:40;2.53;;;2.15;;
81894;SDS011;71358;45.642;13.758;2023-11-21T09:25:25;3.25;;;1.85;;
81894;SDS011;71358;45.642;13.758;2023-11-21T09:28:10;3.45;;;1.60;;
81894;SDS011;71358;45.642;13.758;2023-11-21T09:30:54;2.55;;;1.75;;
81894;SDS011;71358;45.642;13.758;2023-11-21T09:33:39;2.88;;;1.70;;
81894;SDS011;71358;45.642;13.758;2023-11-21T09:36:23;2.65;;;1.90;;
81894;SDS011;71358;45.642;13.758;2023-11-21T09:39:11;2.60;;;1.60;;
81894;SDS011;71358;45.642;13.758;2023-11-21T09:41:59;3.75;;;1.88;;
81894;SDS011;71358;45.642;13.758;2023-11-21T09:47:45;1.63;;;1.30;;
81894;SDS011;71358;45.642;13.758;2023-11-21T09:50:30;1.73;;;1.13;;
81894;SDS011;71358;45.642;13.758;2023-11-21T09:53:17;3.05;;;1.52;;
81894;SDS011;71358;45.642;13.758;2023-11-21T09:56:07;3.05;;;1.25;;
81894;SDS011;71358;45.642;13.758;2023-11-21T09:58:53;1.38;;;1.27;;
81894;SDS011;71358;45.642;13.758;2023-11-21T10:01:37;1.45;;;1.33;;
81894;SDS011;71358;45.642;13.758;2023-11-21T10:04:25;1.77;;;1.30;;
81894;SDS011;71358;45.642;13.758;2023-11-21T10:07:10;1.00;;;1.00;;
81894;SDS011;71358;45.642;13.758;2023-11-21T10:09:59;2.00;;;1.30;;
81894;SDS011;71358;45.642;13.758;2023-11-21T10:12:45;1.50;;;1.40;;
81894;SDS011;71358;45.642;13.758;2023-11-21T10:15:36;1.40;;;1.30;;
81894;SDS011;71358;45.642;13.758;2023-11-21T10:18:21;2.13;;;1.35;;
81894;SDS011;71358;45.642;13.758;2023-11-21T10:21:08;1.20;;;1.10;;
81894;SDS011;71358;45.642;13.758;2023-11-21T10:23:53;1.30;;;1.20;;
81894;SDS011;71358;45.642;13.758;2023-11-21T10:26:39;1.40;;;1.30;;
81894;SDS011;71358;45.642;13.758;2023-11-21T10:29:28;1.05;;;1.00;;
81894;SDS011;71358;45.642;13.758;2023-11-21T10:32:14;1.35;;;1.25;;
81894;SDS011;71358;45.642;13.758;2023-11-21T10:34:58;1.58;;;1.20;;
81894;SDS011;71358;45.642;13.758;2023-11-21T10:37:59;0.80;;;0.80;;
81894;SDS011;71358;45.642;13.758;2023-11-21T10:40:44;3.10;;;1.20;;
81894;SDS011;71358;45.642;13.758;2023-11-21T10:43:30;2.60;;;1.13;;
81894;SDS011;71358;45.642;13.758;2023-11-21T10:46:15;1.85;;;1.05;;
81894;SDS011;71358;45.642;13.758;2023-11-21T10:48:59;1.15;;;1.02;;
81894;SDS011;71358;45.642;13.758;2023-11-21T10:51:44;1.27;;;1.00;;
81894;SDS011;71358;45.642;13.758;2023-11-21T10:54:29;1.17;;;0.82;;
81894;SDS011;71358;45.642;13.758;2023-11-21T10:57:17;1.08;;;0.80;;
81894;SDS011;71358;45.642;13.758;2023-11-21T11:00:05;0.70;;;0.70;;
81894;SDS011;71358;45.642;13.758;2023-11-21T11:02:51;1.55;;;0.80;;
81894;SDS011;71358;45.642;13.758;2023-11-21T11:05:39;1.00;;;1.00;;
81894;SDS011;71358;45.642;13.758;2023-11-21T11:08:29;2.30;;;1.20;;
81894;SDS011;71358;45.642;13.758;2023-11-21T11:11:15;2.42;;;1.15;;
81894;SDS011;71358;45.642;13.758;2023-11-21T11:13:59;3.72;;;1.20;;
81894;SDS011;71358;45.642;13.758;2023-11-21T11:16:44;2.03;;;1.30;;
81894;SDS011;71358;45.642;13.758;2023-11-21T11:19:29;0.95;;;0.90;;
81894;SDS011;71358;45.642;13.758;2023-11-21T11:22:20;0.98;;;0.90;;
81894;SDS011;71358;45.642;13.758;2023-11-21T11:25:30;1.85;;;1.20;;
81894;SDS011;71358;45.642;13.758;2023-11-21T11:28:44;1.35;;;0.98;;
81894;SDS011;71358;45.642;13.758;2023-11-21T11:34:57;1.70;;;0.77;;
81894;SDS011;71358;45.642;13.758;2023-11-21T11:38:02;1.63;;;1.13;;
81894;SDS011;71358;45.642;13.758;2023-11-21T11:40:47;0.93;;;0.82;;
81894;SDS011;71358;45.642;13.758;2023-11-21T11:43:32;1.83;;;1.17;;
81894;SDS011;71358;45.642;13.758;2023-11-21T11:46:18;1.35;;;1.25;;
81894;SDS011;71358;45.642;13.758;2023-11-21T11:49:05;1.25;;;0.98;;
81894;SDS011;71358;45.642;13.758;2023-11-21T11:52:26;1.45;;;1.25;;
81894;SDS011;71358;45.642;13.758;2023-11-21T11:55:13;1.63;;;1.00;;
81894;SDS011;71358;45.642;13.758;2023-11-21T11:58:04;1.05;;;0.90;;
81894;SDS011;71358;45.642;13.758;2023-11-21T12:00:50;0.90;;;0.85;;
81894;SDS011;71358;45.642;13.758;2023-11-21T12:03:37;1.15;;;0.93;;
81894;SDS011;71358;45.642;13.758;2023-11-21T12:06:30;1.30;;;1.20;;
81894;SDS011;71358;45.642;13.758;2023-11-21T12:09:20;1.40;;;1.00;;
81894;SDS011;71358;45.642;13.758;2023-11-21T12:12:05;0.80;;;0.80;;
81894;SDS011;71358;45.642;13.758;2023-11-21T12:14:52;1.25;;;1.13;;
81894;SDS011;71358;45.642;13.758;2023-11-21T12:17:37;0.95;;;0.90;;
81894;SDS011;71358;45.642;13.758;2023-11-21T12:20:23;1.55;;;0.90;;
81894;SDS011;71358;45.642;13.758;2023-11-21T12:23:08;1.83;;;0.98;;
81894;SDS011;71358;45.642;13.758;2023-11-21T12:25:54;0.98;;;0.98;;
81894;SDS011;71358;45.642;13.758;2023-11-21T12:28:39;0.82;;;0.73;;
81894;SDS011;71358;45.642;13.758;2023-11-21T12:31:24;0.75;;;0.70;;
81894;SDS011;71358;45.642;13.758;2023-11-21T12:34:08;2.00;;;1.00;;
81894;SDS011;71358;45.642;13.758;2023-11-21T12:36:55;1.10;;;0.90;;
81894;SDS011;71358;45.642;13.758;2023-11-21T12:39:40;0.80;;;0.80;;
81894;SDS011;71358;45.642;13.758;2023-11-21T12:42:24;1.42;;;0.90;;
81894;SDS011;71358;45.642;13.758;2023-11-21T12:45:09;0.85;;;0.85;;
81894;SDS011;71358;45.642;13.758;2023-11-21T12:48:01;0.80;;;0.77;;
81894;SDS011;71358;45.642;13.758;2023-11-21T12:50:51;0.70;;;0.70;;
81894;SDS011;71358;45.642;13.758;2023-11-21T12:53:40;1.33;;;0.90;;
81894;SDS011;71358;45.642;13.758;2023-11-21T12:56:25;0.80;;;0.70;;
81894;SDS011;71358;45.642;13.758;2023-11-21T12:59:10;0.68;;;0.65;;
81894;SDS011;71358;45.642;13.758;2023-11-21T13:01:58;0.98;;;0.75;;
81894;SDS011;71358;45.642;13.758;2023-11-21T13:04:51;0.70;;;0.70;;
81894;SDS011;71358;45.642;13.758;2023-11-21T13:07:41;0.70;;;0.70;;
81894;SDS011;71358;45.642;13.758;2023-11-21T13:10:31;1.23;;;0.82;;
81894;SDS011;71358;45.642;13.758;2023-11-21T13:13:16;3.22;;;0.70;;
81894;SDS011;71358;45.642;13.758;2023-11-21T13:16:01;2.70;;;0.93;;
81894;SDS011;71358;45.642;13.758;2023-11-21T13:18:49;1.35;;;1.00;;
81894;SDS011;71358;45.642;13.758;2023-11-21T13:21:34;2.58;;;0.90;;
81894;SDS011;71358;45.642;13.758;2023-11-21T13:24:18;2.35;;;1.05;;
81894;SDS011;71358;45.642;13.758;2023-11-21T13:27:03;2.63;;;0.93;;
81894;SDS011;71358;45.642;13.758;2023-11-21T13:29:47;2.58;;;1.42;;
81894;SDS011;71358;45.642;13.758;2023-11-21T13:32:32;2.78;;;1.33;;
81894;SDS011;71358;45.642;13.758;2023-11-21T13:35:20;2.15;;;1.00;;
81894;SDS011;71358;45.642;13.758;2023-11-21T13:38:05;3.53;;;1.10;;
81894;SDS011;71358;45.642;13.758;2023-11-21T13:40:57;3.25;;;0.98;;
81894;SDS011;71358;45.642;13.758;2023-11-21T13:43:42;1.33;;;0.90;;
81894;SDS011;71358;45.642;13.758;2023-11-21T13:46:31;1.13;;;1.00;;
81894;SDS011;71358;45.642;13.758;2023-11-21T13:49:20;2.70;;;1.10;;
81894;SDS011;71358;45.642;13.758;2023-11-21T13:52:06;1.60;;;1.10;;
81894;SDS011;71358;45.642;13.758;2023-11-21T13:54:51;0.98;;;0.73;;
81894;SDS011;71358;45.642;13.758;2023-11-21T13:57:35;1.80;;;1.10;;
81894;SDS011;71358;45.642;13.758;2023-11-21T14:00:20;3.15;;;1.10;;
81894;SDS011;71358;45.642;13.758;2023-11-21T14:03:23;1.80;;;0.75;;
81894;SDS011;71358;45.642;13.758;2023-11-21T14:06:17;0.73;;;0.60;;
81894;SDS011;71358;45.642;13.758;2023-11-21T14:09:07;1.00;;;0.90;;
81894;SDS011;71358;45.642;13.758;2023-11-21T14:11:53;1.90;;;1.15;;
81894;SDS011;71358;45.642;13.758;2023-11-21T14:14:40;1.10;;;0.90;;
81894;SDS011;71358;45.642;13.758;2023-11-21T14:17:24;1.55;;;0.60;;
81894;SDS011;71358;45.642;13.758;2023-11-21T14:20:09;2.05;;;0.88;;
81894;SDS011;71358;45.642;13.758;2023-11-21T14:22:59;1.02;;;0.75;;
81894;SDS011;71358;45.642;13.758;2023-11-21T14:25:44;1.73;;;0.80;;
81894;SDS011;71358;45.642;13.758;2023-11-21T14:28:28;1.27;;;1.17;;
81894;SDS011;71358;45.642;13.758;2023-11-21T14:31:13;2.00;;;1.20;;
81894;SDS011;71358;45.642;13.758;2023-11-21T14:33:59;1.48;;;0.80;;
81894;SDS011;71358;45.642;13.758;2023-11-21T14:36:45;1.63;;;1.00;;
81894;SDS011;71358;45.642;13.758;2023-11-21T14:39:30;1.27;;;0.93;;
81894;SDS011;71358;45.642;13.758;2023-11-21T14:42:14;0.95;;;0.60;;
81894;SDS011;71358;45.642;13.758;2023-11-21T14:44:59;1.67;;;0.90;;
81894;SDS011;71358;45.642;13.758;2023-11-21T14:47:47;1.08;;;0.88;;
81894;SDS011;71358;45.642;13.758;2023-11-21T14:50:49;0.70;;;0.45;;
81894;SDS011;71358;45.642;13.758;2023-11-21T14:53:45;1.80;;;1.13;;
81894;SDS011;71358;45.642;13.758;2023-11-21T14:56:37;2.28;;;1.08;;
81894;SDS011;71358;45.642;13.758;2023-11-21T14:59:22;1.55;;;0.80;;
81894;SDS011;71358;45.642;13.758;2023-11-21T15:02:07;1.25;;;1.15;;
81894;SDS011;71358;45.642;13.758;2023-11-21T15:05:02;1.33;;;0.85;;
81894;SDS011;71358;45.642;13.758;2023-11-21T15:07:46;0.88;;;0.80;;
81894;SDS011;71358;45.642;13.758;2023-11-21T15:10:32;0.75;;;0.75;;
81894;SDS011;71358;45.642;13.758;2023-11-21T15:13:29;2.00;;;0.90;;
81894;SDS011;71358;45.642;13.758;2023-11-21T15:16:16;2.20;;;0.85;;
81894;SDS011;71358;45.642;13.758;2023-11-21T15:19:00;0.82;;;0.80;;
81894;SDS011;71358;45.642;13.758;2023-11-21T15:21:45;1.40;;;0.98;;
81894;SDS011;71358;45.642;13.758;2023-11-21T15:24:29;2.00;;;0.80;;
81894;SDS011;71358;45.642;13.758;2023-11-21T15:27:14;1.55;;;0.85;;
81894;SDS011;71358;45.642;13.758;2023-11-21T15:29:59;1.40;;;0.93;;
81894;SDS011;71358;45.642;13.758;2023-11-21T15:32:44;1.50;;;0.80;;
81894;SDS011;71358;45.642;13.758;2023-11-21T15:35:29;1.38;;;0.77;;
81894;SDS011;71358;45.642;13.758;2023-11-21T15:38:14;0.80;;;0.52;;
81894;SDS011;71358;45.642;13.758;2023-11-21T15:40:59;1.65;;;0.90;;
81894;SDS011;71358;45.642;13.758;2023-11-21T15:43:43;1.65;;;1.00;;
81894;SDS011;71358;45.642;13.758;2023-11-21T15:46:28;0.80;;;0.80;;
81894;SDS011;71358;45.642;13.758;2023-11-21T15:49:13;1.60;;;1.30;;
81894;SDS011;71358;45.642;13.758;2023-11-21T15:52:00;1.52;;;0.80;;
81894;SDS011;71358;45.642;13.758;2023-11-21T15:54:45;2.35;;;1.10;;
81894;SDS011;71358;45.642;13.758;2023-11-21T15:57:29;2.15;;;0.98;;
81894;SDS011;71358;45.642;13.758;2023-11-21T16:00:15;5.95;;;0.98;;
81894;SDS011;71358;45.642;13.758;2023-11-21T16:03:03;1.98;;;0.77;;
81894;SDS011;71358;45.642;13.758;2023-11-21T16:05:48;1.08;;;1.00;;
81894;SDS011;71358;45.642;13.758;2023-11-21T16:08:32;1.88;;;0.90;;
81894;SDS011;71358;45.642;13.758;2023-11-21T16:11:17;3.10;;;1.27;;
81894;SDS011;71358;45.642;13.758;2023-11-21T16:14:01;4.38;;;1.17;;
81894;SDS011;71358;45.642;13.758;2023-11-21T16:16:46;2.85;;;0.95;;
81894;SDS011;71358;45.642;13.758;2023-11-21T16:19:30;1.77;;;0.75;;
81894;SDS011;71358;45.642;13.758;2023-11-21T16:22:15;1.27;;;0.80;;
81894;SDS011;71358;45.642;13.758;2023-11-21T16:25:00;1.15;;;0.70;;
81894;SDS011;71358;45.642;13.758;2023-11-21T16:27:44;2.88;;;0.93;;
81894;SDS011;71358;45.642;13.758;2023-11-21T16:30:30;2.50;;;0.63;;